Alakanuk, AK

10:16 AM AKST on March 03, 2015 (GMT -0900)
Emmonak | Change Station
CLOSE
Current Station
Airport
Location: Emmonak,
Elevation: 13 ft
Nearby Weather Stations

Elev 13 ft 62.79 °N, 164.49 °W | Updated 20 minutes ago

Overcast
Overcast
30 °F
Feels Like 21 °F
N
12
Wind Variable Wind from WNW

Today
High -- | Low -- °F
--% Chance of Precip.
Yesterday
High -- | Low -- °F
Precip. -- in
8:55 AM 7:25 PM
Waxing Gibbous, 97% visible
Pressure 29.71 in
Visibility 3.0 miles
Clouds Mostly Cloudy 500 ft
Overcast 1300 ft
Windchill 21 °F
Dew Point 27 °F
Humidity 86%
Rainfall 0.18 in
Snow Depth Not available.
UV 0 out of 12
Pollen Not available.
Air Quality Not available.
Flu Activity Not available.
METAR PAEM 031856Z AUTO 30010KT 3SM BKN005 OVC013 M01/M03 A2971 RMK AO1 P0001

More Conditions Fewer Conditions

Pressure 29.71 in
Visibility 3.0 miles
Clouds Mostly Cloudy 500 ft
Overcast 1300 ft
Windchill 21 °F
Dew Point 27 °F
Humidity 86%
Rainfall 0.18 in
Snow Depth Not available.
UV 0 out of 12
Pollen Not available.
Air Quality Not available.
Flu Activity Not available.
METAR PAEM 031856Z AUTO 30010KT 3SM BKN005 OVC013 M01/M03 A2971 RMK AO1 P0001

More Conditions Fewer Conditions

10-Day Weather Forecast

Almanac

Astronomy

Mar. 03, 2015 Rise Set
Actual Time
Civil Twilight
Nautical Twilight
Astronomical Twilight
Moon
Length of Visible Light
Length of Day
Tomorrow will be .
, % of the Moon is Illuminated

Today's Extremes

State Highs State Lows

Community

WunderPhotos

Upload Photos

1,802,201 photos uploaded!

WunderBlogs® & News

Nearby

Air Quality

  Air Quality AQ Index Pollutant
Not available.

Snow Depth

Station Depth Elevation

Earthquake Activity

City Distance Mag. Time & Date
Minimum magnitude displayed is 2.5.

Coastal Water Temperatures

Place Temperature

Nearby Weather Stations